Time;durP1;ratioP1;P1;durP2;ratioP2;P2;SDS_P1;SDS_P2;PMS_P1;PMS_P2;Temp;Humidity;BMP_temperature;BMP_pressure;BME280_temperature;BME280_humidity;BME280_pressure;Samples;Min_cycle;Max_cycle;Signal;HPM_P1;HPM_P2
2023/01/09 00:01:28;;;;;;;2.80;0.98;;;9.00;99.90;;;;;;5083653;28;20024;-34
2023/01/09 00:03:53;;;;;;;3.20;0.98;;;9.00;99.90;;;;;;5083982;28;20552;-38
2023/01/09 00:06:19;;;;;;;1.42;0.82;;;9.00;99.90;;;;;;5083553;28;20032;-39
2023/01/09 00:08:45;;;;;;;1.45;0.65;;;9.00;99.90;;;;;;5083512;28;20020;-39
2023/01/09 00:11:10;;;;;;;2.00;0.98;;;9.00;99.90;;;;;;5072361;28;20016;-39
2023/01/09 00:13:36;;;;;;;0.75;0.60;;;9.00;99.90;;;;;;5084153;28;20028;-39
2023/01/09 00:16:07;;;;;;;0.93;0.60;;;9.00;99.90;;;;;;5082808;28;20044;-38
2023/01/09 00:18:33;;;;;;;1.20;0.60;;;8.90;99.90;;;;;;5083633;28;20025;-38
2023/01/09 00:21:03;;;;;;;1.10;0.70;;;8.90;99.90;;;;;;5083503;28;20016;-39
2023/01/09 00:23:29;;;;;;;2.25;0.70;;;8.90;99.90;;;;;;5082931;28;20031;-38
2023/01/09 00:26:08;;;;;;;1.00;0.50;;;8.90;99.90;;;;;;5083450;28;20028;-37
2023/01/09 00:28:34;;;;;;;1.08;0.52;;;8.80;99.90;;;;;;5083707;28;20071;-37
2023/01/09 00:31:01;;;;;;;0.95;0.50;;;8.80;99.90;;;;;;5082051;28;20124;-38
2023/01/09 00:33:43;;;;;;;0.63;0.40;;;8.70;99.90;;;;;;5083132;28;20136;-38
2023/01/09 00:36:09;;;;;;;1.27;0.50;;;8.70;99.90;;;;;;5082523;28;20068;-36
2023/01/09 00:38:36;;;;;;;0.52;0.35;;;8.60;99.90;;;;;;5084123;28;20051;-34
2023/01/09 00:41:03;;;;;;;0.50;0.40;;;8.50;99.90;;;;;;5082879;28;20028;-38
2023/01/09 00:43:33;;;;;;;0.68;0.40;;;8.50;99.90;;;;;;5083261;28;20107;-35
2023/01/09 00:46:02;;;;;;;0.32;0.32;;;8.40;99.90;;;;;;5082511;28;20031;-35
2023/01/09 00:48:28;;;;;;;0.95;0.30;;;8.40;99.90;;;;;;5083262;28;20028;-33
2023/01/09 00:50:57;;;;;;;0.30;0.30;;;8.30;99.90;;;;;;5082863;28;20082;-38
2023/01/09 00:53:26;;;;;;;0.73;0.40;;;8.30;99.90;;;;;;5082621;28;20024;-39
2023/01/09 00:55:52;;;;;;;0.40;0.30;;;8.20;99.90;;;;;;5082919;28;20047;-37
2023/01/09 00:58:18;;;;;;;0.82;0.50;;;8.20;99.90;;;;;;5082039;28;20070;-34
2023/01/09 01:00:44;;;;;;;0.50;0.40;;;8.10;99.90;;;;;;5083388;28;20051;-36
2023/01/09 01:03:09;;;;;;;0.40;0.40;;;8.10;99.90;;;;;;5082501;28;20130;-38
2023/01/09 01:08:19;;;;;;;0.30;0.30;;;7.90;99.90;;;;;;5073974;28;20093;-37
2023/01/09 01:10:46;;;;;;;0.43;0.43;;;7.80;99.90;;;;;;5086109;28;20041;-39
2023/01/09 01:13:12;;;;;;;0.30;0.30;;;7.80;99.90;;;;;;5085337;28;20051;-38
2023/01/09 01:15:39;;;;;;;0.63;0.45;;;7.80;99.90;;;;;;5087197;28;20512;-38
2023/01/09 01:18:05;;;;;;;0.60;0.40;;;7.70;99.90;;;;;;5086196;28;20020;-39
2023/01/09 01:20:31;;;;;;;1.40;0.50;;;7.60;99.90;;;;;;5086375;28;20085;-39
2023/01/09 01:22:56;;;;;;;0.40;0.40;;;7.60;99.90;;;;;;5086419;28;20048;-38
2023/01/09 01:25:22;;;;;;;1.27;0.43;;;7.50;99.90;;;;;;5085788;28;20036;-37
2023/01/09 01:27:48;;;;;;;0.52;0.40;;;7.50;99.90;;;;;;5086371;28;20510;-39
2023/01/09 01:30:18;;;;;;;0.57;0.50;;;7.50;99.90;;;;;;5085523;28;20023;-39
2023/01/09 01:32:44;;;;;;;0.70;0.55;;;7.50;99.90;;;;;;5085238;28;20052;-37
2023/01/09 01:35:10;;;;;;;1.13;0.40;;;7.50;99.90;;;;;;5085825;28;20032;-39
2023/01/09 01:37:37;;;;;;;0.75;0.70;;;7.50;99.90;;;;;;5085996;28;20040;-39
2023/01/09 01:40:04;;;;;;;0.77;0.57;;;7.50;99.90;;;;;;5085353;28;20081;-39
2023/01/09 01:42:30;;;;;;;1.13;0.60;;;7.50;99.90;;;;;;5085707;28;20074;-39
2023/01/09 01:45:18;;;;;;;0.80;0.73;;;7.40;99.90;;;;;;5086519;28;20462;-39
2023/01/09 01:48:02;;;;;;;1.02;0.70;;;7.40;99.90;;;;;;5085789;28;20024;-38
2023/01/09 01:50:27;;;;;;;1.02;0.77;;;7.40;99.90;;;;;;5086712;28;20023;-39
2023/01/09 01:53:10;;;;;;;1.40;0.77;;;7.40;99.90;;;;;;5086255;28;20020;-39
2023/01/09 01:55:41;;;;;;;1.30;0.85;;;7.30;99.90;;;;;;5085262;28;20031;-38
2023/01/09 01:58:10;;;;;;;0.70;0.70;;;7.30;99.90;;;;;;5085275;28;20020;-38
2023/01/09 02:00:40;;;;;;;2.15;0.85;;;7.30;99.90;;;;;;5085259;28;20487;-38
2023/01/09 02:03:07;;;;;;;0.90;0.75;;;7.30;99.90;;;;;;5084934;28;20555;-37
2023/01/09 02:05:35;;;;;;;0.75;0.70;;;7.30;99.90;;;;;;5085452;28;20071;-38
2023/01/09 02:08:00;;;;;;;0.82;0.60;;;7.20;99.90;;;;;;5084418;28;20031;-39
2023/01/09 02:10:26;;;;;;;1.38;0.80;;;7.20;99.90;;;;;;5085997;28;20020;-37
2023/01/09 02:12:52;;;;;;;1.25;0.90;;;7.20;99.90;;;;;;5085726;28;20035;-37
2023/01/09 02:15:19;;;;;;;1.40;0.75;;;7.20;99.90;;;;;;5084699;28;20425;-36
2023/01/09 02:18:02;;;;;;;0.77;0.70;;;7.10;99.90;;;;;;5085287;28;20500;-39
2023/01/09 02:20:53;;;;;;;1.48;0.75;;;7.10;99.90;;;;;;5084690;28;20028;-37
2023/01/09 02:23:54;;;;;;;0.93;0.77;;;7.10;99.90;;;;;;5083415;28;20043;-39
2023/01/09 02:26:42;;;;;;;1.05;0.85;;;7.10;99.90;;;;;;5084278;28;20685;-38
2023/01/09 02:29:44;;;;;;;0.80;0.80;;;7.00;99.90;;;;;;5083865;28;20655;-39
2023/01/09 02:32:24;;;;;;;1.25;0.70;;;7.00;99.90;;;;;;5084352;28;20553;-39
2023/01/09 02:35:08;;;;;;;1.27;0.60;;;7.00;99.90;;;;;;5084874;28;20042;-38
2023/01/09 02:37:55;;;;;;;0.77;0.60;;;7.00;99.90;;;;;;5064778;28;20099;-37
2023/01/09 02:40:42;;;;;;;1.42;0.80;;;7.00;99.90;;;;;;5083277;28;20093;-38
2023/01/09 02:43:09;;;;;;;1.95;0.88;;;7.10;99.90;;;;;;5083609;28;20658;-39
2023/01/09 02:45:34;;;;;;;0.70;0.70;;;7.20;99.90;;;;;;5083186;28;20172;-39
2023/01/09 02:48:00;;;;;;;2.28;1.02;;;7.20;99.90;;;;;;5073820;28;20059;-37
2023/01/09 02:51:01;;;;;;;1.98;1.00;;;7.20;99.90;;;;;;5080243;28;20110;-37
2023/01/09 02:53:37;;;;;;;1.52;1.00;;;7.10;99.90;;;;;;5056650;28;20256;-38
2023/01/09 02:56:35;;;;;;;1.25;0.90;;;7.10;99.90;;;;;;5084176;28;20149;-38
2023/01/09 02:59:16;;;;;;;1.45;1.00;;;7.20;99.90;;;;;;5037939;28;20038;-36
2023/01/09 03:01:48;;;;;;;1.90;0.98;;;7.20;99.90;;;;;;5085291;28;20034;-36
2023/01/09 03:04:27;;;;;;;0.70;0.70;;;7.20;99.90;;;;;;5083431;28;20123;-37
2023/01/09 03:07:19;;;;;;;1.27;0.80;;;7.10;99.90;;;;;;5084464;28;20023;-37
2023/01/09 03:09:49;;;;;;;0.90;0.70;;;7.10;99.90;;;;;;5084323;28;20016;-38
2023/01/09 03:12:21;;;;;;;1.67;1.00;;;7.00;99.90;;;;;;5072359;28;20665;-39
2023/01/09 03:14:55;;;;;;;1.63;0.90;;;7.00;99.90;;;;;;5084504;28;20032;-35
2023/01/09 03:17:28;;;;;;;2.60;0.90;;;6.90;99.90;;;;;;5083673;28;20024;-38
2023/01/09 03:19:56;;;;;;;0.85;0.80;;;6.90;99.90;;;;;;5083977;28;20035;-38
2023/01/09 03:22:22;;;;;;;1.98;0.93;;;6.80;99.90;;;;;;5084164;28;20028;-38
2023/01/09 03:24:47;;;;;;;2.80;1.05;;;6.80;99.90;;;;;;5084618;28;20145;-35
2023/01/09 03:27:13;;;;;;;2.67;1.05;;;6.80;99.90;;;;;;5083927;28;20020;-36
2023/01/09 03:29:42;;;;;;;1.17;0.93;;;6.80;99.90;;;;;;5084294;28;20436;-37
2023/01/09 03:32:07;;;;;;;0.98;0.90;;;6.80;99.90;;;;;;5081776;28;20040;-39
2023/01/09 03:34:33;;;;;;;2.78;1.13;;;6.80;99.90;;;;;;5084648;28;20067;-38
2023/01/09 03:36:58;;;;;;;2.42;1.10;;;6.70;99.90;;;;;;5083628;28;20050;-36
2023/01/09 03:39:24;;;;;;;2.72;1.33;;;6.70;99.90;;;;;;5083158;28;20020;-37
2023/01/09 03:41:50;;;;;;;2.95;1.17;;;6.70;99.90;;;;;;5084121;28;20031;-38
2023/01/09 03:44:15;;;;;;;2.65;1.40;;;6.70;99.90;;;;;;5083632;28;20463;-39
2023/01/09 03:46:41;;;;;;;1.45;1.00;;;6.70;99.90;;;;;;5082778;28;20016;-38
2023/01/09 03:49:06;;;;;;;2.33;1.05;;;6.60;99.90;;;;;;5083879;28;20367;-38
2023/01/09 03:51:35;;;;;;;2.05;1.02;;;6.70;99.90;;;;;;5083974;28;20028;-34
2023/01/09 03:54:00;;;;;;;2.25;1.10;;;6.60;99.90;;;;;;5082883;28;20056;-34
2023/01/09 03:56:26;;;;;;;1.27;0.70;;;6.50;99.90;;;;;;5083963;28;20154;-37
2023/01/09 03:58:52;;;;;;;2.83;0.88;;;6.60;99.90;;;;;;5083976;28;20128;-38
2023/01/09 04:01:17;;;;;;;2.78;1.10;;;6.50;99.90;;;;;;5082754;28;20039;-38
2023/01/09 04:03:43;;;;;;;2.28;0.85;;;6.50;99.90;;;;;;5083770;28;20024;-38
2023/01/09 04:06:08;;;;;;;2.08;1.10;;;6.50;99.90;;;;;;5083673;28;20031;-37
2023/01/09 04:08:34;;;;;;;2.22;1.00;;;6.50;99.90;;;;;;5082651;28;20035;-38
2023/01/09 04:11:00;;;;;;;2.40;1.05;;;6.40;99.90;;;;;;5083638;28;20031;-39
2023/01/09 04:13:25;;;;;;;1.73;0.90;;;6.40;99.90;;;;;;5083837;28;20499;-37
2023/01/09 04:15:51;;;;;;;1.98;1.15;;;6.50;99.90;;;;;;5083435;28;20111;-39
2023/01/09 04:18:16;;;;;;;1.67;1.02;;;6.40;99.90;;;;;;5083679;28;20483;-38
2023/01/09 04:20:45;;;;;;;3.13;1.08;;;6.40;99.90;;;;;;5083574;28;20028;-37
2023/01/09 04:23:10;;;;;;;2.95;1.17;;;6.40;99.90;;;;;;5081748;28;20027;-39
2023/01/09 04:25:36;;;;;;;1.65;1.05;;;6.40;99.90;;;;;;5083684;28;20016;-39
2023/01/09 04:28:01;;;;;;;1.13;0.88;;;6.30;99.90;;;;;;5083560;28;20778;-39
2023/01/09 04:30:27;;;;;;;1.83;1.10;;;6.30;99.90;;;;;;5083183;28;20425;-37
2023/01/09 04:32:53;;;;;;;3.72;1.00;;;6.30;99.90;;;;;;5083159;28;20503;-39
2023/01/09 04:35:19;;;;;;;1.63;1.00;;;6.30;99.90;;;;;;5082626;28;20628;-39
2023/01/09 04:37:44;;;;;;;1.60;1.08;;;6.30;99.90;;;;;;5083663;28;20099;-38
2023/01/09 04:40:11;;;;;;;2.90;1.00;;;6.30;99.90;;;;;;5083509;28;20107;-39
2023/01/09 04:42:37;;;;;;;2.72;1.08;;;6.30;99.90;;;;;;5082889;28;20081;-38
2023/01/09 04:45:05;;;;;;;1.58;1.00;;;6.30;99.90;;;;;;5086627;28;20030;-39
2023/01/09 04:47:31;;;;;;;3.72;1.17;;;6.40;99.90;;;;;;5088045;28;20020;-35
2023/01/09 04:49:57;;;;;;;1.85;0.90;;;6.40;99.90;;;;;;5086211;28;20568;-39
2023/01/09 04:52:23;;;;;;;4.00;1.67;;;6.40;99.90;;;;;;5086681;28;20024;-38
2023/01/09 04:54:48;;;;;;;2.15;1.17;;;6.40;99.90;;;;;;5087122;28;20151;-38
2023/01/09 04:57:15;;;;;;;2.78;1.33;;;6.40;99.90;;;;;;5085546;28;20357;-39
2023/01/09 04:59:40;;;;;;;3.47;1.45;;;6.50;99.90;;;;;;5086701;28;20399;-39
2023/01/09 05:02:06;;;;;;;2.63;1.40;;;6.60;99.90;;;;;;5086597;28;20025;-39
2023/01/09 05:04:32;;;;;;;3.75;1.52;;;6.70;99.90;;;;;;5086081;28;20016;-39
2023/01/09 05:06:57;;;;;;;2.65;1.30;;;6.70;99.90;;;;;;5086969;28;20031;-41
2023/01/09 05:09:23;;;;;;;3.42;1.38;;;6.70;99.90;;;;;;5086251;28;20023;-38
2023/01/09 05:11:49;;;;;;;3.15;1.48;;;6.80;99.90;;;;;;5086702;28;20024;-40
2023/01/09 05:14:14;;;;;;;2.60;1.23;;;6.80;99.90;;;;;;5086635;28;20060;-37
2023/01/09 05:16:40;;;;;;;3.40;1.65;;;6.90;99.90;;;;;;5086812;28;20105;-34
2023/01/09 05:19:05;;;;;;;2.28;1.48;;;6.90;99.90;;;;;;5086040;28;20016;-38
2023/01/09 05:21:31;;;;;;;2.90;1.45;;;6.90;99.90;;;;;;5086438;28;20024;-38
2023/01/09 05:23:56;;;;;;;3.17;1.27;;;7.00;99.90;;;;;;5086383;28;20021;-38
2023/01/09 05:26:23;;;;;;;4.55;1.80;;;7.00;99.90;;;;;;5085766;28;20032;-30
2023/01/09 05:28:52;;;;;;;2.53;1.48;;;7.00;99.90;;;;;;5086809;28;20027;-36
2023/01/09 05:31:19;;;;;;;4.47;1.50;;;7.00;99.90;;;;;;5085566;28;20031;-37
2023/01/09 05:33:47;;;;;;;3.17;1.85;;;7.00;99.90;;;;;;5085850;28;20027;-38
2023/01/09 05:36:14;;;;;;;2.63;1.50;;;7.00;99.90;;;;;;5086103;28;20039;-38
2023/01/09 05:38:39;;;;;;;2.22;1.38;;;7.00;99.90;;;;;;5086063;28;20024;-39
2023/01/09 05:41:05;;;;;;;3.95;1.30;;;7.00;99.90;;;;;;5086026;28;20024;-38
2023/01/09 05:43:31;;;;;;;3.15;1.33;;;7.00;99.90;;;;;;5086511;28;20059;-39
2023/01/09 05:45:57;;;;;;;4.07;1.38;;;6.90;99.90;;;;;;5085169;28;20107;-38
2023/01/09 05:48:22;;;;;;;3.28;1.23;;;7.00;99.90;;;;;;5085755;28;20031;-38
2023/01/09 05:50:48;;;;;;;3.22;1.10;;;7.00;99.90;;;;;;5086248;28;20027;-39
2023/01/09 05:53:13;;;;;;;3.30;1.15;;;7.00;99.90;;;;;;5084890;28;20524;-39
2023/01/09 05:55:39;;;;;;;2.88;1.23;;;7.00;99.90;;;;;;5084783;28;20474;-39
2023/01/09 05:58:04;;;;;;;3.25;1.23;;;7.00;99.90;;;;;;5085456;28;20551;-38
2023/01/09 06:00:30;;;;;;;4.10;1.50;;;7.00;99.90;;;;;;5085036;28;20024;-39
2023/01/09 06:02:56;;;;;;;3.55;1.52;;;7.00;99.90;;;;;;5085611;28;20073;-40
2023/01/09 06:05:22;;;;;;;6.43;1.58;;;7.00;99.90;;;;;;5084955;28;20028;-41
2023/01/09 06:07:47;;;;;;;3.47;1.20;;;6.90;99.90;;;;;;5085475;28;20043;-40
2023/01/09 06:10:14;;;;;;;2.95;1.30;;;6.90;99.90;;;;;;5085280;28;20038;-36
2023/01/09 06:12:40;;;;;;;2.47;1.20;;;7.00;99.90;;;;;;5085638;28;20167;-38
2023/01/09 06:15:07;;;;;;;2.83;1.23;;;7.00;99.90;;;;;;5084499;28;20034;-39
2023/01/09 06:17:32;;;;;;;3.15;1.20;;;7.00;99.90;;;;;;5085136;28;20644;-38
2023/01/09 06:19:58;;;;;;;4.30;1.00;;;7.00;99.90;;;;;;5085816;28;20035;-39
2023/01/09 06:22:24;;;;;;;1.92;1.17;;;7.10;99.90;;;;;;5084257;28;20050;-36
2023/01/09 06:24:49;;;;;;;3.83;1.20;;;7.10;99.90;;;;;;5085364;28;20082;-38
2023/01/09 06:27:15;;;;;;;3.40;1.23;;;7.20;99.90;;;;;;5084657;28;20517;-39
2023/01/09 06:29:40;;;;;;;3.17;1.05;;;7.20;99.90;;;;;;5084325;28;20059;-39
2023/01/09 06:32:06;;;;;;;3.67;1.30;;;7.20;99.90;;;;;;5083893;28;20772;-39
2023/01/09 06:34:31;;;;;;;3.47;1.33;;;7.30;99.90;;;;;;5085277;28;20036;-37
2023/01/09 06:36:57;;;;;;;4.40;1.92;;;7.30;99.90;;;;;;5083661;28;20028;-39
2023/01/09 06:39:23;;;;;;;5.68;1.77;;;7.30;99.90;;;;;;5085159;28;20032;-38
2023/01/09 06:41:48;;;;;;;6.72;1.33;;;7.30;99.90;;;;;;5084716;28;20031;-38
2023/01/09 06:44:14;;;;;;;2.97;1.48;;;7.40;99.90;;;;;;5084422;28;20032;-39
2023/01/09 06:46:39;;;;;;;4.40;1.10;;;7.40;99.90;;;;;;5084989;28;20464;-37
2023/01/09 06:49:05;;;;;;;4.93;1.50;;;7.40;99.90;;;;;;5089002;28;20036;-36
2023/01/09 06:51:30;;;;;;;5.85;1.48;;;7.40;99.90;;;;;;5085320;28;20479;-37
2023/01/09 06:53:56;;;;;;;4.57;1.60;;;7.50;99.90;;;;;;5084646;28;20452;-38
2023/01/09 06:56:22;;;;;;;6.38;1.65;;;7.40;99.90;;;;;;5084247;28;20379;-38
2023/01/09 06:58:50;;;;;;;3.78;1.20;;;7.50;99.90;;;;;;5083411;28;20032;-39
2023/01/09 07:01:16;;;;;;;5.28;1.10;;;7.50;99.90;;;;;;5083342;28;20028;-39
2023/01/09 07:03:42;;;;;;;5.28;1.65;;;7.50;99.90;;;;;;5079982;28;20027;-39
2023/01/09 07:06:08;;;;;;;4.30;1.48;;;7.50;99.90;;;;;;5081793;28;20623;-39
2023/01/09 07:08:34;;;;;;;6.15;1.55;;;7.60;99.90;;;;;;5082546;28;20032;-36
2023/01/09 07:10:59;;;;;;;5.90;1.80;;;7.60;99.90;;;;;;5081417;28;20885;-39
2023/01/09 07:13:25;;;;;;;3.35;1.30;;;7.60;99.90;;;;;;5082284;28;20073;-39
2023/01/09 07:15:52;;;;;;;3.50;1.27;;;7.60;99.90;;;;;;5082815;28;20036;-39
2023/01/09 07:18:18;;;;;;;5.18;1.10;;;7.60;99.90;;;;;;5081275;28;20106;-39
2023/01/09 07:20:44;;;;;;;4.22;1.67;;;7.70;99.90;;;;;;5082187;28;20031;-39
2023/01/09 07:23:13;;;;;;;5.57;1.70;;;7.70;99.90;;;;;;5082118;28;20024;-36
2023/01/09 07:25:40;;;;;;;4.63;1.60;;;7.70;99.90;;;;;;5081492;28;20044;-38
2023/01/09 07:28:06;;;;;;;6.20;1.73;;;7.70;99.90;;;;;;5082560;28;20098;-39
2023/01/09 07:30:35;;;;;;;4.80;1.55;;;7.70;99.90;;;;;;5083094;28;20028;-39
2023/01/09 07:33:00;;;;;;;3.15;1.15;;;7.70;99.90;;;;;;5081251;28;20075;-37
2023/01/09 07:35:29;;;;;;;6.07;1.60;;;7.70;99.90;;;;;;5082600;28;20048;-38
2023/01/09 07:37:55;;;;;;;4.57;1.48;;;7.70;99.90;;;;;;5083679;28;20035;-38
2023/01/09 07:40:21;;;;;;;7.53;2.63;;;7.70;99.90;;;;;;5081900;28;20035;-36
2023/01/09 07:42:47;;;;;;;4.15;1.92;;;7.70;99.90;;;;;;5083100;28;20101;-39
2023/01/09 07:45:12;;;;;;;4.95;1.55;;;7.70;99.90;;;;;;5081390;28;20150;-38
2023/01/09 07:47:40;;;;;;;6.32;1.45;;;7.70;99.90;;;;;;5082833;28;20055;-37
2023/01/09 07:50:10;;;;;;;4.18;1.30;;;7.70;99.90;;;;;;5075152;28;20718;-37
2023/01/09 07:52:35;;;;;;;5.13;1.38;;;7.70;99.90;;;;;;5082359;28;20046;-38
2023/01/09 07:55:01;;;;;;;5.75;1.30;;;7.70;99.90;;;;;;5081926;28;20032;-36
2023/01/09 07:57:28;;;;;;;3.17;1.40;;;7.70;99.90;;;;;;5082691;28;20032;-39
2023/01/09 07:59:54;;;;;;;3.38;1.10;;;7.70;99.90;;;;;;5081885;28;20036;-39
2023/01/09 08:02:19;;;;;;;2.85;1.10;;;7.70;99.90;;;;;;5082355;28;20032;-38
2023/01/09 08:04:45;;;;;;;2.90;1.20;;;7.70;99.90;;;;;;5082622;28;20028;-39
2023/01/09 08:07:10;;;;;;;4.22;1.40;;;7.70;99.90;;;;;;5081631;28;20020;-40
2023/01/09 08:09:39;;;;;;;4.00;1.15;;;7.70;99.90;;;;;;5083223;28;20028;-35
2023/01/09 08:12:04;;;;;;;4.28;1.42;;;7.70;99.90;;;;;;5082028;28;20124;-36
2023/01/09 08:14:30;;;;;;;5.70;1.50;;;7.70;99.90;;;;;;5082185;28;20039;-39
2023/01/09 08:16:56;;;;;;;3.22;1.50;;;7.70;99.90;;;;;;5082865;28;20123;-39
2023/01/09 08:19:22;;;;;;;5.95;2.10;;;7.60;99.90;;;;;;5085847;28;20032;-39
2023/01/09 08:21:48;;;;;;;5.68;1.48;;;7.70;99.90;;;;;;5085666;28;20103;-37
2023/01/09 08:24:14;;;;;;;3.97;1.73;;;7.60;99.90;;;;;;5086328;28;20024;-36
2023/01/09 08:26:40;;;;;;;6.25;1.98;;;7.60;99.90;;;;;;5086167;28;20135;-37
2023/01/09 08:29:05;;;;;;;4.70;1.73;;;7.60;99.90;;;;;;5085654;28;20370;-40
2023/01/09 08:31:31;;;;;;;2.67;1.70;;;7.60;99.90;;;;;;5086347;28;20086;-38
2023/01/09 08:33:56;;;;;;;2.03;1.55;;;7.50;99.90;;;;;;5087057;28;20123;-39
2023/01/09 08:36:22;;;;;;;3.50;1.90;;;7.50;99.90;;;;;;5085433;28;20040;-37
2023/01/09 08:38:47;;;;;;;4.70;1.85;;;7.50;99.90;;;;;;5085578;28;20111;-40
2023/01/09 08:49:26;;;;;;;3.95;1.92;;;7.50;99.90;;;;;;5085420;28;20038;-40
2023/01/09 08:51:51;;;;;;;3.88;2.00;;;7.50;99.90;;;;;;5085970;28;20024;-39
2023/01/09 08:54:17;;;;;;;4.65;2.03;;;7.50;99.90;;;;;;5084899;28;20035;-39
2023/01/09 08:56:42;;;;;;;3.22;1.92;;;7.50;99.90;;;;;;5084822;28;20032;-40
2023/01/09 08:59:08;;;;;;;2.60;1.98;;;7.50;99.90;;;;;;5085663;28;20115;-39
2023/01/09 09:01:34;;;;;;;3.90;1.95;;;7.50;99.90;;;;;;5085239;28;20038;-36
2023/01/09 09:04:00;;;;;;;3.80;2.10;;;7.50;99.90;;;;;;5083690;28;20020;-38
2023/01/09 09:06:25;;;;;;;3.50;1.90;;;7.60;99.90;;;;;;5084129;28;20034;-39
2023/01/09 09:08:51;;;;;;;3.13;2.40;;;7.50;99.90;;;;;;5085308;28;20051;-40
2023/01/09 09:11:16;;;;;;;4.70;2.30;;;7.50;99.90;;;;;;5084623;28;20024;-38
2023/01/09 09:13:42;;;;;;;3.83;2.35;;;7.60;99.90;;;;;;5084988;28;20793;-39
2023/01/09 09:16:07;;;;;;;4.50;2.45;;;7.60;99.90;;;;;;5085329;28;20024;-39
2023/01/09 09:18:33;;;;;;;2.88;2.05;;;7.70;99.90;;;;;;5084208;28;20024;-39
2023/01/09 09:20:58;;;;;;;5.03;2.22;;;7.70;99.90;;;;;;5085250;28;20335;-37
2023/01/09 09:23:24;;;;;;;4.35;2.65;;;7.70;99.90;;;;;;5082953;28;20077;-38
2023/01/09 09:25:49;;;;;;;4.97;2.58;;;7.70;99.90;;;;;;5084265;28;20483;-39
2023/01/09 09:28:15;;;;;;;3.15;2.25;;;7.70;99.90;;;;;;5084738;28;20031;-38
2023/01/09 09:30:41;;;;;;;5.63;3.00;;;7.80;99.90;;;;;;5082989;28;20119;-39
2023/01/09 09:33:07;;;;;;;3.95;2.63;;;7.80;99.90;;;;;;5083837;28;20589;-36
2023/01/09 09:35:33;;;;;;;3.95;2.83;;;7.90;99.90;;;;;;5084636;28;20036;-38
2023/01/09 09:38:01;;;;;;;4.55;2.78;;;7.90;99.90;;;;;;5084111;28;20307;-39
2023/01/09 09:40:29;;;;;;;3.88;2.75;;;8.00;99.90;;;;;;5084805;28;20052;-39
2023/01/09 09:46:27;;;;;;;3.72;2.20;;;8.00;99.90;;;;;;5080961;28;20042;-36
2023/01/09 09:49:01;;;;;;;4.38;2.50;;;8.00;99.90;;;;;;5084936;28;20456;-38
2023/01/09 09:51:57;;;;;;;3.78;2.30;;;8.00;99.90;;;;;;5084992;28;20051;-37
2023/01/09 09:54:31;;;;;;;3.65;2.17;;;8.00;99.90;;;;;;5083255;28;20024;-39
2023/01/09 09:57:01;;;;;;;3.33;2.20;;;8.00;99.90;;;;;;5083714;28;20028;-37
2023/01/09 09:59:33;;;;;;;4.38;2.20;;;8.00;99.90;;;;;;5083678;28;20043;-40
2023/01/09 10:02:27;;;;;;;3.85;2.38;;;8.00;99.90;;;;;;5084420;28;20020;-38
2023/01/09 10:05:10;;;;;;;4.18;2.55;;;8.00;99.90;;;;;;5049233;28;20089;-37
2023/01/09 10:07:41;;;;;;;3.95;2.13;;;8.00;99.90;;;;;;5064540;28;20075;-35
2023/01/09 10:10:17;;;;;;;4.40;2.30;;;8.00;99.90;;;;;;5080711;28;20024;-40
2023/01/09 10:12:53;;;;;;;5.55;2.20;;;8.10;99.90;;;;;;5064494;28;20855;-34
2023/01/09 10:15:41;;;;;;;3.40;1.90;;;8.20;99.90;;;;;;5080086;28;20566;-38
2023/01/09 10:18:31;;;;;;;2.65;2.30;;;8.20;99.90;;;;;;5064336;28;20021;-39
2023/01/09 10:21:30;;;;;;;3.25;2.30;;;8.30;99.90;;;;;;5083761;28;20028;-40
2023/01/09 10:24:12;;;;;;;3.80;2.50;;;8.40;99.90;;;;;;5084199;28;20077;-40
2023/01/09 10:26:50;;;;;;;3.67;2.38;;;8.50;99.90;;;;;;5084046;28;20028;-36
2023/01/09 10:29:45;;;;;;;4.18;2.50;;;8.60;99.90;;;;;;5083191;28;20031;-40
2023/01/09 10:32:30;;;;;;;4.20;2.70;;;8.60;99.90;;;;;;5018274;28;20627;-40
2023/01/09 10:35:21;;;;;;;6.28;2.85;;;8.70;99.90;;;;;;5083332;28;20040;-39
2023/01/09 10:37:52;;;;;;;5.28;2.80;;;8.70;99.90;;;;;;5084518;28;20020;-35
2023/01/09 10:40:17;;;;;;;3.38;2.35;;;8.70;99.90;;;;;;5082964;28;20059;-39
2023/01/09 10:42:51;;;;;;;5.05;2.63;;;8.70;99.90;;;;;;5083169;28;20748;-39
2023/01/09 10:45:25;;;;;;;4.15;2.78;;;8.70;99.90;;;;;;5083288;28;20067;-39
2023/01/09 10:48:00;;;;;;;3.70;1.88;;;8.70;99.90;;;;;;5083485;28;20383;-38
2023/01/09 10:50:30;;;;;;;4.32;2.15;;;8.70;99.90;;;;;;5083548;28;20093;-39
2023/01/09 10:52:56;;;;;;;4.13;2.05;;;8.60;99.90;;;;;;5083555;28;20043;-40
2023/01/09 10:55:34;;;;;;;3.22;1.83;;;8.60;99.90;;;;;;5082884;28;20049;-39
2023/01/09 10:58:10;;;;;;;4.15;1.73;;;8.60;99.90;;;;;;5073262;28;20368;-38
2023/01/09 11:00:37;;;;;;;4.00;1.65;;;8.50;99.90;;;;;;5083883;28;20106;-39
2023/01/09 11:03:03;;;;;;;3.50;1.88;;;8.50;99.90;;;;;;5081283;28;20059;-38
2023/01/09 11:05:32;;;;;;;4.15;2.30;;;8.40;99.90;;;;;;5082412;28;20661;-39
2023/01/09 11:08:17;;;;;;;3.92;1.95;;;8.40;99.90;;;;;;5082501;28;20024;-35
2023/01/09 11:10:49;;;;;;;4.18;1.92;;;8.40;99.90;;;;;;5082339;28;20064;-40
2023/01/09 11:13:24;;;;;;;4.40;1.90;;;8.50;99.90;;;;;;5082340;28;20032;-39
2023/01/09 11:16:09;;;;;;;4.50;2.25;;;8.50;99.90;;;;;;5086772;28;20039;-39
2023/01/09 11:18:38;;;;;;;4.68;2.47;;;8.50;99.90;;;;;;5071635;28;20036;-38
2023/01/09 11:21:17;;;;;;;4.07;2.13;;;8.60;99.90;;;;;;5081603;28;20016;-40
2023/01/09 11:23:43;;;;;;;4.15;2.08;;;8.70;99.90;;;;;;5071265;28;20073;-39
2023/01/09 11:26:25;;;;;;;4.80;1.63;;;8.70;99.90;;;;;;5082045;28;20046;-38
2023/01/09 11:29:04;;;;;;;3.45;1.50;;;8.80;99.90;;;;;;5071586;28;20047;-39
2023/01/09 11:31:30;;;;;;;2.47;1.20;;;8.80;99.90;;;;;;5081707;28;20052;-40
2023/01/09 11:33:56;;;;;;;2.92;1.45;;;8.90;99.90;;;;;;5082352;28;20034;-37
2023/01/09 11:36:24;;;;;;;2.22;1.15;;;8.80;99.90;;;;;;5082007;28;20043;-40
2023/01/09 11:38:58;;;;;;;4.82;2.03;;;8.80;99.90;;;;;;5081498;28;20026;-38
2023/01/09 11:41:31;;;;;;;3.25;1.42;;;8.90;99.90;;;;;;5082049;28;20024;-38
2023/01/09 11:43:58;;;;;;;1.67;1.50;;;8.90;99.90;;;;;;5078623;28;20391;-43
2023/01/09 11:46:44;;;;;;;3.70;1.60;;;8.90;99.90;;;;;;5081015;28;20870;-41
2023/01/09 11:49:19;;;;;;;3.40;1.50;;;8.90;99.90;;;;;;5077881;28;20081;-40
2023/01/09 11:51:45;;;;;;;4.13;1.50;;;9.00;99.90;;;;;;5081554;28;20495;-40
2023/01/09 11:54:23;;;;;;;4.60;1.98;;;9.10;99.90;;;;;;5081108;28;20047;-40
2023/01/09 11:56:49;;;;;;;3.25;1.50;;;9.20;99.90;;;;;;5082012;28;20035;-39
2023/01/09 11:59:21;;;;;;;2.90;1.60;;;9.20;99.90;;;;;;5080917;28;20055;-38
2023/01/09 12:02:02;;;;;;;3.72;1.85;;;9.30;99.90;;;;;;5082828;28;20101;-37
2023/01/09 12:05:01;;;;;;;5.15;1.20;;;9.30;99.90;;;;;;5079716;28;20110;-40
2023/01/09 12:07:44;;;;;;;4.45;1.60;;;9.30;99.90;;;;;;5080816;28;20066;-41
2023/01/09 12:10:40;;;;;;;4.07;1.60;;;9.30;99.90;;;;;;5081843;28;20105;-39
2023/01/09 12:13:18;;;;;;;3.92;1.70;;;9.30;99.90;;;;;;5081231;28;20046;-39
2023/01/09 12:16:08;;;;;;;5.95;1.85;;;9.30;99.90;;;;;;5081614;28;20491;-40
2023/01/09 12:19:18;;;;;;;6.07;1.95;;;9.40;99.90;;;;;;5081230;28;20038;-40
2023/01/09 12:21:53;;;;;;;4.53;1.80;;;9.40;99.90;;;;;;5008017;28;20033;-39
2023/01/09 12:24:25;;;;;;;3.72;1.60;;;9.40;99.90;;;;;;5081500;28;20024;-40
2023/01/09 12:27:23;;;;;;;5.27;1.53;;;9.40;99.90;;;;;;5081894;28;20028;-38
2023/01/09 12:29:52;;;;;;;7.03;1.70;;;9.50;99.90;;;;;;5081200;28;20289;-38
2023/01/09 12:32:36;;;;;;;8.18;1.65;;;9.60;99.90;;;;;;5060648;28;20056;-37
2023/01/09 12:35:16;;;;;;;3.72;1.35;;;9.70;99.90;;;;;;5077136;28;20043;-41
2023/01/09 12:38:15;;;;;;;7.70;1.67;;;9.60;99.90;;;;;;5082198;28;20024;-39
2023/01/09 12:41:11;;;;;;;8.32;1.70;;;9.60;99.90;;;;;;5079345;28;20064;-41
2023/01/09 12:44:15;;;;;;;5.10;2.10;;;9.50;99.90;;;;;;5082260;28;20417;-40
2023/01/09 12:47:06;;;;;;;7.03;2.17;;;9.50;99.90;;;;;;5072772;28;20119;-40
2023/01/09 12:49:41;;;;;;;4.07;1.60;;;9.50;99.90;;;;;;5081718;28;20375;-38
2023/01/09 12:52:27;;;;;;;6.97;2.17;;;9.50;99.90;;;;;;5081750;28;20127;-41
2023/01/09 12:55:05;;;;;;;5.25;1.50;;;9.50;99.90;;;;;;5080608;28;20032;-40
2023/01/09 12:57:39;;;;;;;6.45;1.98;;;9.50;99.90;;;;;;5081233;28;20035;-39
2023/01/09 13:00:26;;;;;;;8.82;1.80;;;9.50;99.90;;;;;;5080733;28;20020;-38
2023/01/09 13:03:13;;;;;;;6.30;1.70;;;9.60;99.90;;;;;;5081179;28;20876;-40
2023/01/09 13:05:46;;;;;;;5.95;1.80;;;9.60;99.90;;;;;;5083258;28;20475;-39
2023/01/09 13:08:36;;;;;;;7.47;1.73;;;9.60;99.90;;;;;;5084166;28;20047;-41
2023/01/09 13:11:11;;;;;;;4.68;1.65;;;9.60;99.90;;;;;;5082989;28;20611;-41
2023/01/09 13:13:46;;;;;;;8.43;1.92;;;9.60;99.90;;;;;;5085622;28;20556;-40
2023/01/09 13:16:20;;;;;;;8.00;2.03;;;9.60;99.90;;;;;;5082979;28;20035;-40
2023/01/09 13:18:54;;;;;;;5.90;1.80;;;9.70;99.90;;;;;;5084667;28;20068;-38
2023/01/09 13:21:20;;;;;;;9.02;1.77;;;9.70;99.90;;;;;;5084551;28;20367;-41
2023/01/09 13:24:15;;;;;;;6.45;1.60;;;9.70;99.90;;;;;;5084396;28;20472;-39
2023/01/09 13:26:50;;;;;;;4.68;1.38;;;9.70;99.90;;;;;;5083512;28;20043;-39
2023/01/09 13:29:29;;;;;;;5.55;1.80;;;9.70;99.90;;;;;;5064027;28;20031;-39
2023/01/09 13:32:00;;;;;;;6.63;1.65;;;9.70;99.90;;;;;;5079966;28;20775;-40